Time;durP1;ratioP1;P1;durP2;ratioP2;P2;SDS_P1;SDS_P2;PMS_P1;PMS_P2;Temp;Humidity;BMP_temperature;BMP_pressure;BME280_temperature;BME280_humidity;BME280_pressure;Samples;Min_cycle;Max_cycle;Signal;HPM_P1;HPM_P2
2022/05/25 00:00:37;;;;;;;5.07;4.57;;;15.90;99.90;;;;;;4992096;28;20177;-53
2022/05/25 00:03:04;;;;;;;4.50;4.10;;;15.90;99.90;;;;;;4991902;28;20189;-52
2022/05/25 00:05:33;;;;;;;5.30;4.80;;;15.90;99.90;;;;;;4991584;28;20251;-52
2022/05/25 00:07:59;;;;;;;6.00;4.97;;;15.90;99.90;;;;;;4974588;28;20512;-53
2022/05/25 00:10:24;;;;;;;5.30;4.80;;;15.90;99.90;;;;;;4991827;28;20232;-53
2022/05/25 00:12:50;;;;;;;5.33;4.93;;;15.90;99.90;;;;;;4991561;28;20209;-55
2022/05/25 00:15:16;;;;;;;5.13;4.63;;;16.00;99.90;;;;;;4991540;28;20176;-54
2022/05/25 00:17:42;;;;;;;5.37;4.87;;;15.90;99.90;;;;;;4991723;28;20634;-52
2022/05/25 00:20:10;;;;;;;4.90;4.50;;;15.90;99.90;;;;;;4991722;28;20180;-53
2022/05/25 00:22:42;;;;;;;5.30;4.80;;;16.00;99.90;;;;;;4991426;28;20215;-53
2022/05/25 00:25:10;;;;;;;5.80;5.30;;;15.90;99.90;;;;;;4995190;28;20177;-55
2022/05/25 00:27:36;;;;;;;5.73;5.23;;;15.90;99.90;;;;;;4995601;28;20169;-55
2022/05/25 00:30:03;;;;;;;5.80;5.30;;;15.90;99.90;;;;;;4995751;28;20219;-57
2022/05/25 00:32:29;;;;;;;5.40;5.00;;;16.00;99.90;;;;;;4995438;28;20682;-53
2022/05/25 00:34:54;;;;;;;5.50;5.00;;;16.00;99.90;;;;;;4995338;28;20261;-51
2022/05/25 00:37:20;;;;;;;5.20;4.77;;;16.00;99.90;;;;;;4995557;28;20235;-57
2022/05/25 00:39:46;;;;;;;5.77;5.17;;;16.00;99.90;;;;;;4995445;28;20666;-56
2022/05/25 00:42:12;;;;;;;6.20;5.60;;;15.90;99.90;;;;;;4995670;28;20225;-54
2022/05/25 00:44:38;;;;;;;6.90;6.13;;;15.90;99.90;;;;;;4995158;28;20231;-55
2022/05/25 00:47:04;;;;;;;7.30;6.60;;;15.80;99.90;;;;;;4995414;28;20177;-55
2022/05/25 00:49:32;;;;;;;7.60;6.90;;;15.90;99.90;;;;;;4995284;28;20216;-53
2022/05/25 00:52:03;;;;;;;6.33;5.60;;;15.90;99.90;;;;;;4995044;28;20225;-51
2022/05/25 00:54:31;;;;;;;6.73;5.73;;;16.00;99.90;;;;;;4994855;28;20169;-54
2022/05/25 00:57:04;;;;;;;7.97;5.97;;;15.90;99.90;;;;;;4995247;28;20507;-55
2022/05/25 00:59:32;;;;;;;6.67;6.07;;;16.00;99.90;;;;;;4995135;28;20174;-58
2022/05/25 01:01:58;;;;;;;6.17;5.67;;;15.90;99.90;;;;;;4995013;28;20200;-56
2022/05/25 01:04:24;;;;;;;6.53;5.93;;;16.00;99.90;;;;;;4994777;28;20174;-56
2022/05/25 01:07:11;;;;;;;8.13;6.30;;;15.90;99.90;;;;;;4995056;28;20177;-55
2022/05/25 01:10:00;;;;;;;6.60;6.00;;;16.00;99.90;;;;;;4994910;28;20212;-55
2022/05/25 01:12:40;;;;;;;6.40;5.80;;;15.90;99.90;;;;;;4994859;28;20717;-55
2022/05/25 01:15:40;;;;;;;6.90;6.30;;;15.90;99.90;;;;;;4994635;28;20177;-56
2022/05/25 01:18:46;;;;;;;7.00;6.40;;;15.90;99.90;;;;;;4994659;28;20656;-53
2022/05/25 01:21:37;;;;;;;6.80;6.20;;;15.90;99.90;;;;;;4934433;29;20222;-55
2022/05/25 01:24:12;;;;;;;6.23;5.73;;;15.90;99.90;;;;;;4933820;29;20757;-56
2022/05/25 01:27:09;;;;;;;6.57;5.97;;;16.00;99.90;;;;;;4934530;29;20564;-56
2022/05/25 01:30:05;;;;;;;6.57;5.97;;;16.00;99.90;;;;;;4934486;29;20278;-54
2022/05/25 01:32:56;;;;;;;6.10;5.60;;;16.00;99.90;;;;;;4934234;29;20656;-50
2022/05/25 01:35:42;;;;;;;6.30;5.80;;;16.00;99.90;;;;;;4933518;29;20548;-55
2022/05/25 01:38:17;;;;;;;6.17;5.67;;;15.90;99.90;;;;;;4934157;29;20258;-53
2022/05/25 01:41:01;;;;;;;6.07;5.57;;;15.90;99.90;;;;;;4934332;29;20175;-55
2022/05/25 01:43:42;;;;;;;6.20;5.70;;;15.90;99.90;;;;;;4933774;29;20242;-50
2022/05/25 01:46:15;;;;;;;6.07;5.57;;;15.90;99.90;;;;;;4934178;29;20182;-55
2022/05/25 01:48:43;;;;;;;6.37;5.70;;;15.90;99.90;;;;;;4933887;29;20706;-54
2022/05/25 01:51:26;;;;;;;7.50;6.80;;;15.90;99.90;;;;;;4933981;29;20680;-53
2022/05/25 01:53:56;;;;;;;6.57;5.97;;;15.80;99.90;;;;;;4933684;29;20517;-55
2022/05/25 01:56:25;;;;;;;5.87;5.37;;;15.70;99.90;;;;;;4934085;29;20178;-54
2022/05/25 01:58:56;;;;;;;6.40;5.80;;;15.70;99.90;;;;;;4984745;28;20196;-52
2022/05/25 02:01:22;;;;;;;7.03;6.33;;;15.70;99.90;;;;;;4994217;28;20178;-55
2022/05/25 02:06:56;;;;;;;6.93;6.33;;;15.70;99.90;;;;;;4994305;28;20216;-57
2022/05/25 02:09:56;;;;;;;7.77;6.13;;;15.70;99.90;;;;;;4993740;28;20379;-55
2022/05/25 02:12:32;;;;;;;6.97;6.17;;;15.70;99.90;;;;;;4933420;29;20227;-57
2022/05/25 02:15:18;;;;;;;6.53;5.93;;;15.70;99.90;;;;;;4933060;29;20234;-54
2022/05/25 02:17:54;;;;;;;6.43;5.90;;;15.80;99.90;;;;;;4932652;29;20183;-55
2022/05/25 02:20:33;;;;;;;6.80;6.20;;;15.70;99.90;;;;;;4933610;29;20202;-55
2022/05/25 02:23:16;;;;;;;7.60;6.87;;;15.70;99.90;;;;;;4933320;29;20300;-55
2022/05/25 02:25:58;;;;;;;7.00;6.30;;;15.70;99.90;;;;;;4933223;29;20680;-56
2022/05/25 02:28:39;;;;;;;6.80;6.20;;;15.80;99.90;;;;;;4933365;29;20239;-55
2022/05/25 02:31:07;;;;;;;7.47;6.77;;;15.70;99.90;;;;;;4933385;29;20251;-51
2022/05/25 02:33:39;;;;;;;7.10;6.40;;;15.70;99.90;;;;;;4932991;29;20219;-53
2022/05/25 02:36:08;;;;;;;6.90;6.20;;;15.80;99.90;;;;;;4933251;29;20250;-54
2022/05/25 02:38:37;;;;;;;7.03;6.43;;;15.80;99.90;;;;;;4933118;29;20264;-51
2022/05/25 02:41:09;;;;;;;7.07;6.37;;;15.80;99.90;;;;;;4933104;29;20186;-57
2022/05/25 02:43:36;;;;;;;7.37;6.20;;;15.80;99.90;;;;;;4932792;29;20302;-53
2022/05/25 02:46:02;;;;;;;7.40;6.80;;;15.80;99.90;;;;;;4933061;29;20175;-53
2022/05/25 02:48:28;;;;;;;8.30;7.50;;;15.80;99.90;;;;;;4955667;28;20224;-53
2022/05/25 02:50:53;;;;;;;12.93;7.13;;;15.80;99.90;;;;;;4993049;28;20655;-54
2022/05/25 02:53:20;;;;;;;7.57;6.87;;;15.70;99.90;;;;;;4992975;28;20312;-55
2022/05/25 02:55:46;;;;;;;8.17;6.90;;;15.60;99.90;;;;;;4992786;28;20192;-55
2022/05/25 02:58:11;;;;;;;6.63;6.03;;;15.50;99.90;;;;;;4992997;28;20169;-56
2022/05/25 03:00:37;;;;;;;6.73;6.13;;;15.50;99.90;;;;;;4993103;28;20552;-51
2022/05/25 03:03:03;;;;;;;6.90;6.20;;;15.60;99.90;;;;;;4975384;28;20193;-55
2022/05/25 03:05:28;;;;;;;7.40;6.70;;;15.60;99.90;;;;;;4992649;28;20709;-53
2022/05/25 03:07:54;;;;;;;7.73;7.03;;;15.60;99.90;;;;;;4992726;28;20181;-57
2022/05/25 03:10:19;;;;;;;7.20;6.53;;;15.60;99.90;;;;;;4992850;28;20212;-51
2022/05/25 03:12:45;;;;;;;6.87;6.27;;;15.60;99.90;;;;;;4992772;28;20205;-54
2022/05/25 03:15:11;;;;;;;7.03;6.33;;;15.70;99.90;;;;;;4992424;28;20658;-55
2022/05/25 03:17:36;;;;;;;7.40;6.70;;;15.70;99.90;;;;;;4992572;28;20177;-55
2022/05/25 03:20:03;;;;;;;8.33;7.10;;;15.70;99.90;;;;;;4992685;28;20182;-53
2022/05/25 03:22:28;;;;;;;7.73;6.93;;;15.80;99.90;;;;;;4992304;28;20789;-53
2022/05/25 03:24:54;;;;;;;6.70;6.10;;;15.70;99.90;;;;;;4992275;28;20260;-55
2022/05/25 03:27:19;;;;;;;6.53;5.90;;;15.70;99.90;;;;;;4992435;28;20181;-55
2022/05/25 03:29:45;;;;;;;7.10;6.40;;;15.70;99.90;;;;;;4992531;28;20181;-56
2022/05/25 03:34:38;;;;;;;7.80;7.10;;;15.70;99.90;;;;;;5029316;28;20223;-57
2022/05/25 03:37:04;;;;;;;7.40;6.70;;;15.80;99.90;;;;;;5031849;28;20169;-57
2022/05/25 03:39:30;;;;;;;7.33;6.67;;;15.80;99.90;;;;;;5032009;28;20172;-56
2022/05/25 03:42:07;;;;;;;7.60;6.90;;;15.80;99.90;;;;;;5032199;28;20245;-54
2022/05/25 03:44:33;;;;;;;7.47;6.77;;;15.80;99.90;;;;;;5012035;28;20184;-53
2022/05/25 03:46:58;;;;;;;9.00;8.10;;;15.80;99.90;;;;;;5012216;28;20189;-55
2022/05/25 03:49:24;;;;;;;8.13;7.23;;;15.80;99.90;;;;;;5011988;28;20181;-55
2022/05/25 03:51:50;;;;;;;8.40;7.20;;;15.80;99.90;;;;;;5011857;28;20204;-57
2022/05/25 03:54:15;;;;;;;7.70;7.00;;;15.80;99.90;;;;;;5011359;28;20188;-56
2022/05/25 03:56:41;;;;;;;8.17;7.37;;;15.80;99.90;;;;;;5011922;28;20203;-56
2022/05/25 03:59:06;;;;;;;9.47;8.50;;;15.80;99.90;;;;;;5011412;28;20653;-56
2022/05/25 04:01:35;;;;;;;7.70;7.00;;;15.90;99.90;;;;;;5011809;28;20639;-56
2022/05/25 04:04:01;;;;;;;6.37;5.77;;;15.80;99.90;;;;;;5011476;28;20600;-54
2022/05/25 04:06:26;;;;;;;6.43;5.83;;;15.70;99.90;;;;;;5012090;28;20251;-56
2022/05/25 04:08:52;;;;;;;6.83;6.23;;;15.70;99.90;;;;;;5011912;28;20188;-55
2022/05/25 04:11:18;;;;;;;7.23;6.53;;;15.70;99.90;;;;;;5011574;28;20661;-53
2022/05/25 04:13:43;;;;;;;7.83;7.13;;;15.70;99.90;;;;;;5011503;28;20564;-53
2022/05/25 04:16:09;;;;;;;7.73;6.93;;;15.80;99.90;;;;;;5011734;28;20177;-56
2022/05/25 04:18:35;;;;;;;13.30;8.43;;;15.80;99.90;;;;;;5011711;28;20172;-55
2022/05/25 04:21:00;;;;;;;8.60;7.77;;;15.80;99.90;;;;;;5011720;28;20180;-55
2022/05/25 04:23:27;;;;;;;9.40;8.50;;;15.80;99.90;;;;;;5011548;28;20224;-55
2022/05/25 04:25:54;;;;;;;8.77;7.83;;;15.70;99.90;;;;;;5011454;28;20172;-52
2022/05/25 04:28:20;;;;;;;9.40;7.47;;;15.60;99.90;;;;;;5010630;28;20168;-55
2022/05/25 04:30:46;;;;;;;8.93;8.03;;;15.60;99.90;;;;;;5011461;28;20688;-55
2022/05/25 04:33:12;;;;;;;9.27;8.10;;;15.80;99.90;;;;;;5011420;28;20394;-55
2022/05/25 04:35:37;;;;;;;8.67;7.80;;;15.40;99.90;;;;;;5011504;28;20188;-54
2022/05/25 04:38:03;;;;;;;8.70;7.87;;;15.40;99.90;;;;;;5011561;28;20177;-53
2022/05/25 04:40:32;;;;;;;8.30;7.40;;;15.40;99.90;;;;;;5011428;28;20700;-57
2022/05/25 04:43:00;;;;;;;7.90;7.07;;;15.50;99.90;;;;;;5011268;28;20199;-56
2022/05/25 04:45:27;;;;;;;11.00;7.90;;;15.50;99.90;;;;;;5011265;28;20241;-53
2022/05/25 04:47:54;;;;;;;8.30;7.50;;;15.60;99.90;;;;;;5011343;28;20172;-55
2022/05/25 04:50:22;;;;;;;8.23;7.47;;;15.60;99.90;;;;;;5011534;28;20185;-55
2022/05/25 04:52:48;;;;;;;8.93;7.77;;;15.70;99.90;;;;;;5011359;28;20216;-54
2022/05/25 04:58:00;;;;;;;7.93;7.23;;;15.80;99.90;;;;;;5011608;28;20231;-54
2022/05/25 05:00:27;;;;;;;8.03;7.23;;;15.80;99.90;;;;;;5011611;28;20634;-55
2022/05/25 05:02:53;;;;;;;7.77;7.07;;;15.90;99.90;;;;;;4993033;28;20207;-52
2022/05/25 05:05:20;;;;;;;8.53;7.73;;;15.90;99.90;;;;;;5010997;28;20184;-56
2022/05/25 05:07:46;;;;;;;8.60;7.60;;;15.80;99.90;;;;;;5011250;28;20180;-55
2022/05/25 05:10:13;;;;;;;8.53;7.63;;;15.70;99.90;;;;;;4993916;28;20185;-52
2022/05/25 05:12:42;;;;;;;8.47;7.67;;;15.60;99.90;;;;;;5010737;28;20228;-56
2022/05/25 05:15:08;;;;;;;8.90;8.00;;;15.50;99.90;;;;;;5014630;28;20515;-56
2022/05/25 05:17:33;;;;;;;9.60;8.70;;;15.50;99.90;;;;;;5014184;28;20188;-54
2022/05/25 05:19:59;;;;;;;9.07;8.27;;;15.40;99.90;;;;;;5014597;28;20243;-54
2022/05/25 05:22:25;;;;;;;8.40;7.70;;;15.30;99.90;;;;;;5014685;28;20204;-53
2022/05/25 05:24:50;;;;;;;8.40;7.70;;;15.20;99.90;;;;;;5014314;28;20255;-53
2022/05/25 05:27:16;;;;;;;9.03;8.13;;;15.30;99.90;;;;;;5014126;28;20188;-55
2022/05/25 05:29:41;;;;;;;9.33;8.20;;;15.40;99.90;;;;;;5014426;28;20184;-56
2022/05/25 05:32:10;;;;;;;9.27;8.37;;;15.40;99.90;;;;;;5014065;28;20204;-59
2022/05/25 05:34:36;;;;;;;9.03;8.23;;;15.40;99.90;;;;;;5012323;28;20196;-55
2022/05/25 05:37:08;;;;;;;9.50;8.60;;;15.30;99.90;;;;;;5007888;28;20326;-55
2022/05/25 05:39:37;;;;;;;9.57;8.67;;;15.40;99.90;;;;;;5013471;28;20176;-56
2022/05/25 05:42:10;;;;;;;8.97;8.07;;;15.40;99.90;;;;;;5014058;28;20558;-55
2022/05/25 05:44:47;;;;;;;9.80;8.90;;;15.50;99.90;;;;;;4994511;28;20177;-57
2022/05/25 05:47:18;;;;;;;9.80;8.90;;;15.60;99.90;;;;;;5009443;28;20177;-54
2022/05/25 05:49:44;;;;;;;9.43;8.53;;;15.60;99.90;;;;;;5014052;28;20565;-57
2022/05/25 05:52:10;;;;;;;9.20;8.30;;;15.70;99.90;;;;;;5013930;28;20204;-57
2022/05/25 05:54:36;;;;;;;9.33;8.53;;;15.70;99.90;;;;;;5013561;28;20667;-56
2022/05/25 05:57:02;;;;;;;9.77;8.87;;;15.80;99.90;;;;;;5014203;28;20215;-59
2022/05/25 05:59:28;;;;;;;9.53;8.67;;;15.80;99.90;;;;;;5014101;28;20187;-57
2022/05/25 06:01:53;;;;;;;9.27;8.43;;;15.90;99.90;;;;;;5014122;28;20181;-58
2022/05/25 06:04:19;;;;;;;10.60;9.60;;;16.00;99.90;;;;;;5013623;28;20196;-58
2022/05/25 06:06:45;;;;;;;9.97;9.07;;;16.00;99.90;;;;;;5014033;28;20534;-61
2022/05/25 06:09:10;;;;;;;9.50;8.53;;;16.10;99.90;;;;;;5013876;28;20172;-59
2022/05/25 06:11:41;;;;;;;9.83;8.93;;;16.20;99.90;;;;;;5013837;28;20196;-59
2022/05/25 06:14:07;;;;;;;10.10;8.60;;;16.20;99.90;;;;;;5013596;28;20227;-59
2022/05/25 06:19:27;;;;;;;9.30;8.40;;;16.20;99.90;;;;;;5013802;28;20596;-62
2022/05/25 06:22:07;;;;;;;9.17;8.27;;;16.20;99.90;;;;;;5013507;28;20246;-60
2022/05/25 06:24:40;;;;;;;9.27;8.37;;;16.10;99.90;;;;;;5013584;28;20172;-56
2022/05/25 06:27:11;;;;;;;9.40;8.50;;;16.10;99.90;;;;;;5013673;28;20549;-58
2022/05/25 06:29:39;;;;;;;9.30;8.40;;;16.10;99.90;;;;;;5013964;28;20176;-56
2022/05/25 06:32:06;;;;;;;9.73;8.73;;;16.10;99.90;;;;;;5013707;28;20200;-61
2022/05/25 06:34:32;;;;;;;9.20;8.30;;;16.10;99.90;;;;;;5013397;28;20670;-58
2022/05/25 06:36:58;;;;;;;9.00;8.20;;;16.20;99.90;;;;;;5013565;28;20181;-58
2022/05/25 06:39:24;;;;;;;8.83;8.03;;;16.30;99.90;;;;;;5013270;28;20515;-57
2022/05/25 06:41:50;;;;;;;7.87;7.17;;;16.30;99.90;;;;;;5013291;28;20264;-57
2022/05/25 06:44:17;;;;;;;8.27;7.53;;;16.40;99.90;;;;;;5012865;28;20275;-60
2022/05/25 06:46:42;;;;;;;7.97;7.27;;;16.40;99.90;;;;;;5013139;28;20188;-60
2022/05/25 06:49:08;;;;;;;8.33;7.53;;;16.40;99.90;;;;;;4995517;28;20207;-58
2022/05/25 06:51:35;;;;;;;7.80;7.10;;;16.30;99.90;;;;;;5013105;28;20192;-62
2022/05/25 06:54:01;;;;;;;8.43;7.40;;;16.40;99.90;;;;;;5012810;28;20603;-60
2022/05/25 06:56:26;;;;;;;7.60;6.90;;;16.50;99.90;;;;;;5012942;28;20234;-61
2022/05/25 06:58:53;;;;;;;7.37;6.67;;;16.50;99.90;;;;;;5013165;28;20175;-56
2022/05/25 07:01:19;;;;;;;7.40;6.80;;;16.40;99.90;;;;;;5013187;28;20203;-57
2022/05/25 07:03:45;;;;;;;7.40;6.60;;;16.30;99.90;;;;;;5012665;28;20219;-56
2022/05/25 07:06:13;;;;;;;6.90;6.30;;;16.30;99.90;;;;;;5013050;28;20223;-58
2022/05/25 07:08:39;;;;;;;7.17;6.40;;;16.30;99.90;;;;;;5013057;28;20273;-59
2022/05/25 07:11:05;;;;;;;6.73;6.13;;;16.40;99.90;;;;;;5012750;28;20255;-57
2022/05/25 07:13:30;;;;;;;6.17;5.67;;;16.40;99.90;;;;;;5012584;28;20531;-56
2022/05/25 07:16:02;;;;;;;6.87;6.27;;;16.50;99.90;;;;;;5012766;28;20172;-57
2022/05/25 07:18:28;;;;;;;6.27;5.70;;;16.50;99.90;;;;;;5011530;28;20631;-62
2022/05/25 07:21:03;;;;;;;5.93;5.43;;;16.50;99.90;;;;;;5001388;28;20173;-58
2022/05/25 07:23:28;;;;;;;7.03;5.97;;;17.10;99.90;;;;;;5000913;28;20717;-57
2022/05/25 07:25:54;;;;;;;6.90;6.20;;;16.60;99.90;;;;;;5000174;28;20173;-58
2022/05/25 07:28:19;;;;;;;6.30;5.70;;;16.60;99.90;;;;;;5001386;28;20191;-61
2022/05/25 07:30:49;;;;;;;6.40;5.90;;;16.50;99.90;;;;;;4995449;28;20181;-61
2022/05/25 07:33:15;;;;;;;6.83;6.10;;;16.50;99.90;;;;;;4994676;28;20560;-58
2022/05/25 07:35:40;;;;;;;6.37;5.87;;;16.40;99.90;;;;;;4992586;28;20170;-61
2022/05/25 07:38:06;;;;;;;6.47;5.87;;;16.50;99.90;;;;;;4992704;28;20180;-57
2022/05/25 07:40:36;;;;;;;7.33;6.73;;;16.50;99.90;;;;;;4992768;28;20175;-59
2022/05/25 07:43:08;;;;;;;7.00;6.40;;;16.60;99.90;;;;;;4992634;28;20190;-59
2022/05/25 07:45:35;;;;;;;7.30;6.60;;;16.70;99.90;;;;;;4994939;28;20181;-59
2022/05/25 07:48:01;;;;;;;7.23;6.63;;;16.80;99.90;;;;;;4992693;28;20609;-59
2022/05/25 07:50:27;;;;;;;7.13;6.10;;;16.90;99.90;;;;;;4992519;28;20200;-58
2022/05/25 07:52:55;;;;;;;7.10;6.40;;;17.70;99.90;;;;;;4992362;28;20270;-59
2022/05/25 07:55:21;;;;;;;6.97;6.37;;;16.90;99.90;;;;;;4992220;28;20653;-59
2022/05/25 07:57:47;;;;;;;7.60;6.87;;;16.80;99.90;;;;;;4992365;28;20701;-58
2022/05/25 08:00:14;;;;;;;6.83;6.23;;;16.70;99.90;;;;;;4991687;28;20173;-57
2022/05/25 08:05:44;;;;;;;7.33;6.63;;;16.80;99.90;;;;;;4992021;28;20179;-59
2022/05/25 08:08:25;;;;;;;7.13;6.43;;;16.50;99.90;;;;;;4992352;28;20166;-57
2022/05/25 08:10:55;;;;;;;7.70;7.00;;;16.40;99.90;;;;;;4992378;28;20643;-59
2022/05/25 08:13:22;;;;;;;7.30;6.53;;;16.20;99.90;;;;;;4992055;28;20686;-60
2022/05/25 08:15:47;;;;;;;7.37;6.60;;;16.20;99.90;;;;;;4991913;28;20181;-58
2022/05/25 08:18:15;;;;;;;7.23;6.53;;;16.30;99.90;;;;;;4992057;28;20200;-61
2022/05/25 08:20:42;;;;;;;6.60;5.90;;;16.30;99.90;;;;;;4992408;28;20186;-57
2022/05/25 08:23:10;;;;;;;6.50;5.90;;;16.40;99.90;;;;;;4992116;28;20248;-58
2022/05/25 08:25:36;;;;;;;6.90;6.20;;;16.40;99.90;;;;;;4991835;28;20365;-60
2022/05/25 08:28:03;;;;;;;6.63;5.93;;;16.40;99.90;;;;;;4992003;28;20245;-59
2022/05/25 08:30:30;;;;;;;7.03;6.07;;;16.40;99.90;;;;;;4991956;28;20629;-59
2022/05/25 08:32:55;;;;;;;6.10;5.50;;;16.40;99.90;;;;;;4991251;28;20208;-59
2022/05/25 08:35:22;;;;;;;5.73;5.23;;;16.30;99.90;;;;;;4991801;28;20165;-60
2022/05/25 08:37:47;;;;;;;5.40;5.00;;;16.30;99.90;;;;;;4991907;28;20205;-54
2022/05/25 08:40:17;;;;;;;5.60;5.10;;;16.10;99.90;;;;;;4992698;28;20205;-58
2022/05/25 08:42:58;;;;;;;5.30;4.80;;;16.20;99.90;;;;;;4991689;28;20244;-58
2022/05/25 08:45:31;;;;;;;4.97;4.57;;;16.20;99.90;;;;;;4992541;28;20184;-56
2022/05/25 08:47:58;;;;;;;8.77;3.77;;;16.20;99.90;;;;;;4995675;28;20170;-58
2022/05/25 08:50:24;;;;;;;3.93;3.60;;;16.20;99.90;;;;;;4995971;28;20196;-61
2022/05/25 08:52:54;;;;;;;4.63;3.40;;;16.30;99.90;;;;;;4995696;28;20201;-56
2022/05/25 08:55:36;;;;;;;3.70;3.40;;;16.40;99.90;;;;;;4995826;28;20199;-58
2022/05/25 08:58:02;;;;;;;3.57;3.27;;;16.40;99.90;;;;;;4995770;28;20246;-59
2022/05/25 09:00:28;;;;;;;3.80;3.40;;;16.30;99.90;;;;;;4995800;28;20257;-60
2022/05/25 09:03:01;;;;;;;2.73;2.53;;;16.40;99.90;;;;;;4995581;28;20200;-58
2022/05/25 09:05:35;;;;;;;3.00;2.80;;;16.40;99.90;;;;;;4995399;28;20187;-59
2022/05/25 09:08:03;;;;;;;2.50;2.30;;;16.40;99.90;;;;;;4995556;28;20308;-60
2022/05/25 09:10:36;;;;;;;2.33;2.13;;;16.30;99.90;;;;;;4995534;28;20179;-58
2022/05/25 09:13:12;;;;;;;2.60;2.40;;;16.20;99.90;;;;;;4995357;28;20241;-58
2022/05/25 09:16:15;;;;;;;2.00;1.90;;;16.20;99.90;;;;;;4995346;28;20546;-58
2022/05/25 09:18:33;;;;;;;2.80;2.00;;;16.30;99.90;;;;;;4995289;28;20174;-56
2022/05/25 09:21:03;;;;;;;1.70;1.60;;;16.40;99.90;;;;;;4995696;28;20173;-55
2022/05/25 09:23:29;;;;;;;2.90;1.67;;;16.40;99.90;;;;;;4995196;28;20657;-54
2022/05/25 09:25:56;;;;;;;1.70;1.60;;;16.40;99.90;;;;;;4995309;28;20165;-59
2022/05/25 09:28:28;;;;;;;1.50;1.40;;;16.50;99.90;;;;;;4995152;28;20683;-60
2022/05/25 09:30:56;;;;;;;7.60;1.87;;;16.60;99.90;;;;;;4995000;28;20240;-59
2022/05/25 09:33:46;;;;;;;1.43;1.33;;;16.70;99.90;;;;;;4994724;28;20287;-61
2022/05/25 09:36:29;;;;;;;1.30;1.20;;;16.70;99.90;;;;;;4995173;28;20182;-60
2022/05/25 09:39:06;;;;;;;1.70;1.47;;;16.70;99.90;;;;;;4995004;28;20562;-59
2022/05/25 09:41:33;;;;;;;1.50;1.30;;;17.00;99.90;;;;;;4994610;28;20433;-57
2022/05/25 09:44:02;;;;;;;1.27;1.27;;;17.10;99.90;;;;;;4994160;28;20190;-59
2022/05/25 09:46:45;;;;;;;1.30;1.20;;;17.20;99.90;;;;;;4995168;28;20646;-58
2022/05/25 09:49:33;;;;;;;1.80;1.70;;;17.40;99.90;;;;;;4994774;28;20172;-63
2022/05/25 09:52:02;;;;;;;2.17;1.60;;;17.60;99.90;;;;;;4994862;28;20281;-61
2022/05/25 09:54:39;;;;;;;3.13;1.47;;;17.60;99.90;;;;;;4993764;28;20186;-59
2022/05/25 09:57:13;;;;;;;1.40;1.30;;;17.70;99.90;;;;;;4996652;28;20181;-60
2022/05/25 09:59:49;;;;;;;1.50;1.40;;;17.70;99.90;;;;;;4994946;28;20169;-60
2022/05/25 10:02:48;;;;;;;1.97;1.30;;;17.50;99.90;;;;;;5020314;22;20236;-56
2022/05/25 10:05:27;;;;;;;1.37;1.23;;;17.50;99.90;;;;;;4992957;28;20181;-62
2022/05/25 10:07:56;;;;;;;2.53;1.30;;;17.30;99.90;;;;;;4994078;28;20169;-62
2022/05/25 10:10:32;;;;;;;1.17;1.10;;;17.40;99.90;;;;;;4993852;28;20212;-61
2022/05/25 10:13:16;;;;;;;1.40;1.30;;;17.40;99.90;;;;;;4993970;28;20217;-61
2022/05/25 10:15:42;;;;;;;3.50;1.40;;;17.50;99.90;;;;;;4993686;28;20267;-58
2022/05/25 10:18:13;;;;;;;2.70;1.43;;;17.50;99.90;;;;;;4993775;28;20259;-59
2022/05/25 10:20:48;;;;;;;1.10;1.03;;;17.60;99.90;;;;;;4993833;28;20236;-60
2022/05/25 10:23:22;;;;;;;1.33;1.23;;;17.70;99.90;;;;;;4992885;28;20697;-60
2022/05/25 10:25:50;;;;;;;1.63;1.30;;;17.90;99.90;;;;;;4993691;28;20558;-61
2022/05/25 10:28:36;;;;;;;1.80;1.37;;;18.20;99.90;;;;;;4990322;28;20189;-60
2022/05/25 10:36:59;;;;;;;2.40;1.60;;;18.50;99.90;;;;;;4988761;28;20268;-61
2022/05/25 10:39:27;;;;;;;1.73;1.20;;;18.60;99.90;;;;;;4991601;28;21504;-61
2022/05/25 10:42:18;;;;;;;3.30;1.70;;;18.70;99.90;;;;;;5001373;28;20697;-61
2022/05/25 10:45:10;;;;;;;1.60;1.40;;;18.70;99.90;;;;;;4974006;28;20201;-59
2022/05/25 10:47:57;;;;;;;1.40;1.30;;;18.80;99.90;;;;;;4973983;28;20529;-59
2022/05/25 10:50:40;;;;;;;1.77;1.30;;;18.60;99.90;;;;;;4973231;28;20250;-62
2022/05/25 10:53:33;;;;;;;2.17;1.10;;;18.40;99.90;;;;;;4973100;28;20220;-61
2022/05/25 10:56:04;;;;;;;1.50;1.40;;;18.40;99.90;;;;;;4973735;28;20583;-60
2022/05/25 10:58:59;;;;;;;1.30;1.20;;;18.40;99.90;;;;;;4973701;28;20229;-59
2022/05/25 11:02:02;;;;;;;1.60;1.23;;;18.30;99.90;;;;;;4973594;28;20170;-57
2022/05/25 11:04:34;;;;;;;1.20;1.10;;;18.00;99.90;;;;;;4973164;28;20217;-61
2022/05/25 11:07:16;;;;;;;1.00;0.90;;;18.00;99.90;;;;;;4973644;28;20205;-60
2022/05/25 11:10:09;;;;;;;2.03;1.00;;;17.90;99.90;;;;;;4972831;28;20186;-61
2022/05/25 11:12:54;;;;;;;1.63;0.90;;;17.80;99.90;;;;;;4973344;28;20280;-57
2022/05/25 11:15:28;;;;;;;0.97;0.93;;;17.70;99.90;;;;;;4973252;28;20221;-60
2022/05/25 11:18:22;;;;;;;0.80;0.80;;;17.60;99.90;;;;;;4973439;28;20217;-57
2022/05/25 11:20:56;;;;;;;1.70;1.00;;;17.50;99.90;;;;;;4973186;28;20658;-56
2022/05/25 11:23:53;;;;;;;1.07;1.00;;;17.40;99.90;;;;;;4973016;28;20540;-60
2022/05/25 11:26:53;;;;;;;1.83;1.30;;;17.40;99.90;;;;;;4967612;28;20216;-60
2022/05/25 11:29:30;;;;;;;1.13;1.10;;;17.40;99.90;;;;;;4973164;28;20217;-58
2022/05/25 11:32:14;;;;;;;1.20;1.10;;;17.70;99.90;;;;;;4973061;28;20201;-59
2022/05/25 11:34:58;;;;;;;1.13;1.03;;;17.80;99.90;;;;;;4972928;28;20178;-58
2022/05/25 11:37:54;;;;;;;1.87;1.00;;;17.80;99.90;;;;;;4973073;28;20224;-60
2022/05/25 11:40:40;;;;;;;0.80;0.80;;;17.90;99.90;;;;;;4972953;28;20520;-62
2022/05/25 11:43:27;;;;;;;0.80;0.80;;;18.20;99.90;;;;;;4972659;28;20195;-61
2022/05/25 11:46:05;;;;;;;0.70;0.70;;;18.20;99.90;;;;;;4972700;28;20224;-59
2022/05/25 11:49:02;;;;;;;0.87;0.60;;;18.30;99.90;;;;;;4972726;28;20178;-59
2022/05/25 11:51:55;;;;;;;4.43;0.97;;;18.20;99.90;;;;;;4966640;28;20217;-60
2022/05/25 11:54:49;;;;;;;1.80;1.00;;;18.20;99.90;;;;;;4972264;28;20672;-61
2022/05/25 11:57:39;;;;;;;1.33;0.90;;;18.50;99.90;;;;;;4972591;28;20170;-60
2022/05/25 12:00:07;;;;;;;1.00;0.90;;;18.70;99.90;;;;;;4972606;28;20201;-60
2022/05/25 12:02:53;;;;;;;0.70;0.70;;;19.00;99.90;;;;;;4972551;28;20209;-58
2022/05/25 12:05:32;;;;;;;1.30;1.20;;;19.40;99.90;;;;;;4972275;28;20177;-61
2022/05/25 12:08:07;;;;;;;1.30;1.17;;;19.90;99.90;;;;;;4972556;28;20193;-61
2022/05/25 12:10:37;;;;;;;1.40;0.98;;;19.90;99.90;;;;;;4972567;28;20183;-60
2022/05/25 12:13:21;;;;;;;2.40;1.00;;;20.00;99.90;;;;;;4972418;28;20282;-60
2022/05/25 12:16:06;;;;;;;1.83;1.08;;;20.10;99.90;;;;;;4972338;28;20181;-60
2022/05/25 12:18:43;;;;;;;1.30;1.20;;;20.10;99.90;;;;;;4972508;28;20562;-60
2022/05/25 12:21:14;;;;;;;1.55;1.20;;;20.20;99.90;;;;;;4972210;28;20227;-59
2022/05/25 12:23:51;;;;;;;1.42;1.08;;;20.10;99.90;;;;;;4972046;28;20212;-60
2022/05/25 12:26:22;;;;;;;1.33;1.20;;;19.90;99.90;;;;;;4972090;28;20183;-60
2022/05/25 12:28:51;;;;;;;1.33;1.00;;;19.80;99.90;;;;;;4972662;28;20258;-57
2022/05/25 12:31:28;;;;;;;1.48;1.17;;;20.10;99.90;;;;;;4972453;28;20173;-59
2022/05/25 12:33:54;;;;;;;0.90;0.90;;;20.20;99.90;;;;;;4972172;28;20744;-58
2022/05/25 12:36:21;;;;;;;1.45;1.10;;;20.20;99.90;;;;;;4972176;28;20256;-60
2022/05/25 12:38:46;;;;;;;1.25;1.15;;;20.60;99.90;;;;;;4971923;28;20174;-60
2022/05/25 12:41:23;;;;;;;2.83;1.33;;;20.70;99.90;;;;;;4972150;28;20177;-59
2022/05/25 12:43:52;;;;;;;1.65;1.20;;;20.90;99.90;;;;;;4971918;28;20185;-61
2022/05/25 12:49:35;;;;;;;1.17;0.90;;;20.70;99.90;;;;;;4950677;28;20188;-56
2022/05/25 12:52:01;;;;;;;0.90;0.80;;;20.30;99.90;;;;;;4971994;28;20230;-60
2022/05/25 12:54:33;;;;;;;1.58;1.10;;;20.30;99.90;;;;;;4971508;28;20193;-61
2022/05/25 12:57:01;;;;;;;1.10;1.00;;;20.20;99.90;;;;;;4972124;28;20258;-61
2022/05/25 12:59:37;;;;;;;1.10;1.00;;;20.30;99.90;;;;;;4971876;28;20183;-61
2022/05/25 13:02:14;;;;;;;2.25;0.95;;;20.00;99.90;;;;;;4972098;28;20175;-59
2022/05/25 13:04:47;;;;;;;0.98;0.73;;;20.00;99.90;;;;;;4971887;28;20536;-59
2022/05/25 13:07:39;;;;;;;0.70;0.60;;;20.10;99.90;;;;;;4972098;28;20183;-58
2022/05/25 13:10:42;;;;;;;1.02;0.98;;;20.00;99.90;;;;;;4972155;28;20188;-60
2022/05/25 13:13:38;;;;;;;1.20;1.08;;;20.00;99.90;;;;;;4971717;28;20216;-60
2022/05/25 13:16:04;;;;;;;1.17;0.90;;;20.00;99.90;;;;;;4971907;28;20172;-61
2022/05/25 13:18:49;;;;;;;0.90;0.85;;;20.10;99.90;;;;;;4971878;28;20184;-56
2022/05/25 13:21:37;;;;;;;1.17;1.00;;;20.20;99.90;;;;;;4971954;28;20177;-57
2022/05/25 13:24:19;;;;;;;1.00;0.90;;;20.60;99.90;;;;;;4971559;28;20181;-59
2022/05/25 13:26:56;;;;;;;1.10;0.90;;;20.90;99.90;;;;;;4971953;28;20177;-60
2022/05/25 13:29:45;;;;;;;0.55;0.50;;;20.90;99.90;;;;;;4971797;28;20670;-58
2022/05/25 13:32:32;;;;;;;1.38;0.70;;;21.00;99.90;;;;;;4973529;28;20207;-61
2022/05/25 13:35:19;;;;;;;1.30;0.65;;;21.00;99.90;;;;;;4974912;28;20253;-58